createdAt,value
2018-02-16T00:01:03.206Z,3.30
2018-02-16T00:03:30.737Z,2.80
2018-02-16T00:05:58.295Z,2.70
2018-02-16T00:08:25.799Z,3.53
2018-02-16T00:10:53.299Z,2.90
2018-02-16T00:13:20.836Z,2.67
2018-02-16T00:15:49.072Z,2.37
2018-02-16T00:18:16.583Z,2.90
2018-02-16T00:20:44.038Z,3.47
2018-02-16T00:23:13.392Z,2.87
2018-02-16T00:25:40.948Z,3.13
2018-02-16T00:28:08.431Z,3.30
2018-02-16T00:30:38.178Z,3.60
2018-02-16T00:33:05.886Z,4.03
2018-02-16T00:35:33.527Z,2.73
2018-02-16T00:38:03.022Z,3.13
2018-02-16T00:40:31.501Z,2.93
2018-02-16T00:42:59.069Z,3.10
2018-02-16T00:45:29.893Z,2.90
2018-02-16T00:47:57.380Z,4.03
2018-02-16T00:50:24.878Z,3.20
2018-02-16T00:52:52.375Z,3.50
2018-02-16T00:55:19.847Z,3.77
2018-02-16T00:57:47.314Z,2.87
2018-02-16T01:00:14.807Z,3.30
2018-02-16T01:02:43.049Z,3.80
2018-02-16T01:05:10.498Z,5.00
2018-02-16T01:07:38.023Z,3.47
2018-02-16T01:10:05.556Z,3.50
2018-02-16T01:12:33.783Z,4.00
2018-02-16T01:15:02.039Z,3.10
2018-02-16T01:17:29.530Z,4.37
2018-02-16T01:19:57.075Z,3.00
2018-02-16T01:22:25.362Z,5.20
2018-02-16T01:24:52.831Z,3.33
2018-02-16T01:27:20.318Z,4.83
2018-02-16T01:29:47.774Z,3.80
2018-02-16T01:32:15.403Z,3.67
2018-02-16T01:34:42.887Z,4.47
2018-02-16T01:37:11.115Z,3.47
2018-02-16T01:39:38.589Z,3.77
2018-02-16T01:42:06.099Z,3.83
2018-02-16T01:44:33.565Z,3.27
2018-02-16T01:47:01.066Z,3.40
2018-02-16T01:49:28.530Z,3.93
2018-02-16T01:51:56.770Z,3.83
2018-02-16T01:54:25.273Z,4.53
2018-02-16T01:56:52.740Z,3.60
2018-02-16T01:59:20.226Z,3.47
2018-02-16T02:01:47.746Z,4.33
2018-02-16T02:04:15.337Z,3.30
2018-02-16T02:06:42.835Z,3.20
2018-02-16T02:09:10.362Z,3.63
2018-02-16T02:11:37.877Z,4.30
2018-02-16T02:14:05.391Z,3.33
2018-02-16T02:16:32.888Z,3.80
2018-02-16T02:19:00.378Z,4.00
2018-02-16T02:21:27.878Z,2.83
2018-02-16T02:23:56.554Z,2.73
2018-02-16T02:26:24.011Z,3.80
2018-02-16T02:28:51.474Z,5.23
2018-02-16T02:31:18.961Z,3.00
2018-02-16T02:33:46.434Z,3.83
2018-02-16T02:36:14.810Z,2.30
2018-02-16T02:38:43.083Z,4.00
2018-02-16T02:41:11.354Z,3.10
2018-02-16T02:43:38.809Z,3.30
2018-02-16T02:46:07.128Z,3.50
2018-02-16T02:48:34.595Z,3.27
2018-02-16T02:51:02.094Z,3.07
2018-02-16T02:53:29.655Z,3.13
2018-02-16T02:55:57.974Z,2.43
2018-02-16T02:58:25.419Z,2.70
2018-02-16T03:00:52.931Z,2.30
2018-02-16T03:03:20.427Z,2.03
2018-02-16T03:05:48.678Z,3.23
2018-02-16T03:08:16.187Z,2.00
2018-02-16T03:10:43.650Z,2.97
2018-02-16T03:13:11.113Z,2.57
2018-02-16T03:15:38.595Z,3.10
2018-02-16T03:18:06.066Z,2.87
2018-02-16T03:20:33.531Z,1.70
2018-02-16T03:23:01.047Z,2.77
2018-02-16T03:25:28.501Z,2.83
2018-02-16T03:27:55.978Z,3.27
2018-02-16T03:30:23.451Z,2.60
2018-02-16T03:32:50.918Z,2.23
2018-02-16T03:35:19.195Z,3.00
2018-02-16T03:37:47.466Z,3.13
2018-02-16T03:40:15.774Z,2.57
2018-02-16T03:42:43.281Z,2.40
2018-02-16T03:45:10.782Z,2.63
2018-02-16T03:47:39.042Z,2.27
2018-02-16T03:50:07.273Z,2.37
2018-02-16T03:52:34.753Z,2.57
2018-02-16T03:55:02.256Z,2.63
2018-02-16T03:57:29.734Z,3.37
2018-02-16T03:59:57.249Z,2.17
2018-02-16T04:02:25.479Z,2.10
2018-02-16T04:04:52.990Z,2.83
2018-02-16T04:07:21.224Z,4.17
2018-02-16T04:09:48.698Z,4.03
2018-02-16T04:12:16.340Z,2.30
2018-02-16T04:14:43.889Z,2.90
2018-02-16T04:17:11.366Z,2.70
2018-02-16T04:19:38.877Z,2.83
2018-02-16T04:22:06.420Z,3.40
2018-02-16T04:24:34.656Z,2.63
2018-02-16T04:27:02.550Z,2.73
2018-02-16T04:29:30.810Z,2.90
2018-02-16T04:31:58.279Z,2.73
2018-02-16T04:34:26.530Z,3.27
2018-02-16T04:36:54.047Z,2.83
2018-02-16T04:39:21.528Z,2.53
2018-02-16T04:41:49.838Z,3.90
2018-02-16T04:44:17.338Z,2.83
2018-02-16T04:46:44.904Z,3.03
2018-02-16T04:49:12.396Z,3.40
2018-02-16T04:51:39.913Z,2.90
2018-02-16T04:54:07.454Z,3.70
2018-02-16T04:56:34.969Z,3.90
2018-02-16T04:59:02.466Z,3.03
2018-02-16T05:01:29.944Z,2.57
2018-02-16T05:03:57.442Z,4.33
2018-02-16T05:06:24.942Z,2.50
2018-02-16T05:08:52.428Z,3.57
2018-02-16T05:11:19.914Z,2.93
2018-02-16T05:13:47.399Z,3.20
2018-02-16T05:16:14.904Z,3.10
2018-02-16T05:18:44.266Z,3.60
2018-02-16T05:21:11.802Z,3.00
2018-02-16T05:23:39.316Z,3.30
2018-02-16T05:28:45.701Z,2.77
2018-02-16T05:31:13.368Z,2.87
2018-02-16T05:33:40.863Z,3.10
2018-02-16T05:36:08.380Z,3.57
2018-02-16T05:38:38.541Z,2.60
2018-02-16T05:41:06.123Z,3.10
2018-02-16T05:43:33.677Z,3.80
2018-02-16T05:46:01.181Z,4.23
2018-02-16T05:48:28.706Z,3.77
2018-02-16T05:50:56.254Z,3.13
2018-02-16T05:53:24.960Z,3.47
2018-02-16T05:55:52.464Z,2.57
2018-02-16T05:58:20.011Z,2.23
2018-02-16T06:00:47.498Z,3.43
2018-02-16T06:03:15.730Z,3.10
2018-02-16T06:05:43.202Z,3.60
2018-02-16T06:08:10.704Z,3.40
2018-02-16T06:10:38.926Z,3.50
2018-02-16T06:13:06.417Z,2.90
2018-02-16T06:15:34.696Z,3.23
2018-02-16T06:18:02.909Z,2.67
2018-02-16T06:20:30.387Z,3.70
2018-02-16T06:22:57.879Z,3.63
2018-02-16T06:25:25.333Z,3.67
2018-02-16T06:27:53.560Z,3.00
2018-02-16T06:30:21.575Z,3.20
2018-02-16T06:32:49.040Z,2.80
2018-02-16T06:35:17.266Z,3.60
2018-02-16T06:37:44.741Z,2.17
2018-02-16T06:40:12.202Z,2.73
2018-02-16T06:42:39.664Z,2.97
2018-02-16T06:45:07.170Z,2.73
2018-02-16T06:47:34.645Z,3.20
2018-02-16T06:50:02.115Z,2.50
2018-02-16T06:52:29.610Z,2.90
2018-02-16T06:54:57.366Z,2.40
2018-02-16T06:57:24.840Z,2.00
2018-02-16T06:59:53.082Z,4.60
2018-02-16T07:02:21.174Z,4.00
2018-02-16T07:04:48.638Z,2.13
2018-02-16T07:07:16.924Z,3.30
2018-02-16T07:09:45.145Z,3.27
2018-02-16T07:12:12.607Z,2.77
2018-02-16T07:14:40.082Z,3.17
2018-02-16T07:17:07.535Z,3.03
2018-02-16T07:19:35.000Z,4.80
2018-02-16T07:22:02.468Z,3.37
2018-02-16T07:24:29.927Z,3.80
2018-02-16T07:26:58.151Z,3.17
2018-02-16T07:29:25.625Z,3.83
2018-02-16T07:31:53.082Z,3.13
2018-02-16T07:34:20.614Z,3.10
2018-02-16T07:36:48.103Z,2.07
2018-02-16T07:39:16.554Z,2.77
2018-02-16T07:41:44.030Z,3.63
2018-02-16T07:44:11.495Z,3.20
2018-02-16T07:46:38.954Z,3.20
2018-02-16T07:49:06.417Z,2.60
2018-02-16T07:51:33.891Z,2.70
2018-02-16T07:54:02.115Z,3.03
2018-02-16T07:56:29.575Z,2.73
2018-02-16T07:58:57.772Z,2.50
2018-02-16T08:01:25.230Z,3.80
2018-02-16T08:03:52.721Z,3.03
2018-02-16T08:06:20.987Z,3.20
2018-02-16T08:08:48.446Z,2.53
2018-02-16T08:11:15.908Z,3.00
2018-02-16T08:13:44.151Z,2.37
2018-02-16T08:16:11.611Z,2.50
2018-02-16T08:18:39.071Z,3.00
2018-02-16T08:21:06.542Z,2.27
2018-02-16T08:23:34.012Z,2.70
2018-02-16T08:26:02.251Z,2.60
2018-02-16T08:28:29.733Z,2.57
2018-02-16T08:30:57.196Z,3.67
2018-02-16T08:33:25.431Z,2.90
2018-02-16T08:35:52.895Z,3.20
2018-02-16T08:38:20.361Z,3.23
2018-02-16T08:40:47.817Z,3.07
2018-02-16T08:43:15.303Z,3.33
2018-02-16T08:45:43.612Z,3.10
2018-02-16T08:48:11.076Z,4.00
2018-02-16T08:50:38.545Z,2.77
2018-02-16T08:53:06.020Z,2.73
2018-02-16T08:55:33.488Z,4.03
2018-02-16T08:58:00.973Z,3.63
2018-02-16T09:00:29.193Z,3.43
2018-02-16T09:02:56.660Z,3.77
2018-02-16T09:05:24.194Z,4.00
2018-02-16T09:07:51.655Z,3.40
2018-02-16T09:10:19.212Z,3.40
2018-02-16T09:12:46.691Z,3.80
2018-02-16T09:15:14.147Z,3.23
2018-02-16T09:17:41.618Z,3.37
2018-02-16T09:20:09.201Z,2.50
2018-02-16T09:22:37.438Z,3.13
2018-02-16T09:25:04.928Z,3.47
2018-02-16T09:27:33.167Z,3.43
2018-02-16T09:30:00.711Z,2.97
2018-02-16T09:32:28.280Z,2.60
2018-02-16T09:34:56.906Z,2.50
2018-02-16T09:37:25.587Z,2.70
2018-02-16T09:39:53.909Z,2.77
2018-02-16T09:42:21.366Z,2.70
2018-02-16T09:44:48.822Z,4.70
2018-02-16T09:47:16.370Z,2.77
2018-02-16T09:49:43.846Z,2.20
2018-02-16T09:52:11.396Z,2.10
2018-02-16T09:54:38.897Z,2.30
2018-02-16T09:57:06.426Z,2.43
2018-02-16T09:59:33.895Z,2.67
2018-02-16T10:02:01.355Z,2.70
2018-02-16T10:04:28.830Z,2.10
2018-02-16T10:06:56.342Z,3.03
2018-02-16T10:09:23.878Z,3.70
2018-02-16T10:11:51.395Z,3.33
2018-02-16T10:14:18.863Z,3.03
2018-02-16T10:16:46.311Z,2.77
2018-02-16T10:19:13.779Z,3.40
2018-02-16T10:21:42.033Z,2.97
2018-02-16T10:24:09.458Z,2.67
2018-02-16T10:26:37.130Z,2.70
2018-02-16T10:29:04.615Z,2.17
2018-02-16T10:31:32.070Z,2.53
2018-02-16T10:33:59.533Z,1.83
2018-02-16T10:36:27.761Z,2.73
2018-02-16T10:38:55.227Z,2.60
2018-02-16T10:41:22.693Z,1.80
2018-02-16T10:43:50.174Z,2.47
2018-02-16T10:46:17.647Z,2.50
2018-02-16T10:48:45.961Z,2.70
2018-02-16T10:51:13.422Z,2.10
2018-02-16T10:53:40.910Z,2.00
2018-02-16T10:56:08.450Z,2.43
2018-02-16T10:58:35.963Z,2.50
2018-02-16T11:01:09.714Z,3.70
2018-02-16T11:03:37.934Z,1.90
2018-02-16T11:06:12.341Z,2.50
2018-02-16T11:08:54.267Z,2.13
2018-02-16T11:11:23.507Z,2.70
2018-02-16T11:13:50.955Z,2.40
2018-02-16T11:16:18.639Z,2.10
2018-02-16T11:18:46.121Z,3.43
2018-02-16T11:21:14.483Z,2.63
2018-02-16T11:23:41.950Z,2.93
2018-02-16T11:26:09.518Z,2.10
2018-02-16T11:28:37.762Z,3.10
2018-02-16T11:31:05.293Z,3.00
2018-02-16T11:33:33.230Z,2.40
2018-02-16T11:36:01.663Z,2.40
2018-02-16T11:38:29.116Z,2.57
2018-02-16T11:40:56.601Z,2.30
2018-02-16T11:43:24.053Z,2.37
2018-02-16T11:45:51.870Z,3.23
2018-02-16T11:48:19.697Z,2.80
2018-02-16T11:50:47.951Z,2.43
2018-02-16T11:53:15.395Z,1.97
2018-02-16T11:55:42.879Z,1.80
2018-02-16T11:58:10.341Z,2.33
2018-02-16T12:00:37.798Z,2.30
2018-02-16T12:03:06.036Z,2.20
2018-02-16T12:05:33.498Z,1.97
2018-02-16T12:08:01.658Z,1.73
2018-02-16T12:10:29.167Z,2.40
2018-02-16T12:12:57.392Z,2.07
2018-02-16T12:15:24.855Z,2.10
2018-02-16T12:17:52.324Z,2.03
2018-02-16T12:20:19.775Z,2.27
2018-02-16T12:22:47.239Z,1.73
2018-02-16T12:25:14.710Z,2.00
2018-02-16T12:27:42.164Z,2.00
2018-02-16T12:30:09.615Z,2.40
2018-02-16T12:32:37.096Z,2.03
2018-02-16T12:35:05.320Z,1.90
2018-02-16T12:37:32.774Z,1.60
2018-02-16T12:40:00.242Z,2.13
2018-02-16T12:42:27.706Z,2.87
2018-02-16T12:44:55.162Z,2.03
2018-02-16T12:47:22.634Z,2.10
2018-02-16T12:49:50.083Z,1.73
2018-02-16T12:52:17.540Z,1.97
2018-02-16T12:54:45.799Z,2.07
2018-02-16T12:57:13.259Z,1.80
2018-02-16T12:59:40.718Z,1.97
2018-02-16T13:02:08.197Z,1.77
2018-02-16T13:04:35.762Z,2.67
2018-02-16T13:07:03.986Z,1.73
2018-02-16T13:09:31.466Z,2.47
2018-02-16T13:11:58.926Z,2.63
2018-02-16T13:14:26.382Z,2.47
2018-02-16T13:16:53.850Z,3.10
2018-02-16T13:19:21.317Z,2.83
2018-02-16T13:21:48.780Z,2.30
2018-02-16T13:24:17.021Z,2.10
2018-02-16T13:26:44.480Z,2.60
2018-02-16T13:29:11.940Z,1.80
2018-02-16T13:31:39.405Z,2.10
2018-02-16T13:34:06.870Z,1.83
2018-02-16T13:36:34.419Z,2.13
2018-02-16T13:39:01.910Z,2.10
2018-02-16T13:41:30.129Z,1.90
2018-02-16T13:43:57.602Z,2.00
2018-02-16T13:46:25.069Z,1.73
2018-02-16T13:48:52.534Z,2.13
2018-02-16T13:51:19.992Z,2.40
2018-02-16T13:53:47.495Z,2.00
2018-02-16T13:56:14.959Z,2.50
2018-02-16T13:58:42.438Z,2.23
2018-02-16T14:01:10.008Z,1.90
2018-02-16T14:03:37.476Z,2.00
2018-02-16T14:06:05.694Z,2.10
2018-02-16T14:08:33.170Z,2.00
2018-02-16T14:11:00.715Z,1.83
2018-02-16T14:13:28.211Z,2.17
2018-02-16T14:15:55.695Z,1.73
2018-02-16T14:18:23.825Z,2.67
2018-02-16T14:20:51.270Z,2.70
2018-02-16T14:23:18.750Z,2.73
2018-02-16T14:25:46.215Z,1.90
2018-02-16T14:28:13.774Z,2.20
2018-02-16T14:30:42.746Z,2.10
2018-02-16T14:33:10.213Z,2.13
2018-02-16T14:35:37.734Z,2.33
2018-02-16T14:38:05.208Z,1.83
2018-02-16T14:40:32.679Z,1.87
2018-02-16T14:43:00.142Z,1.70
2018-02-16T14:45:27.706Z,2.17
2018-02-16T14:47:55.186Z,1.93
2018-02-16T14:50:23.407Z,2.00
2018-02-16T14:52:50.882Z,2.47
2018-02-16T14:55:18.374Z,1.90
2018-02-16T14:57:46.595Z,1.90
2018-02-16T15:00:14.090Z,2.47
2018-02-16T15:02:41.570Z,1.80
2018-02-16T15:05:09.798Z,2.90
2018-02-16T15:07:38.018Z,2.17
2018-02-16T15:10:06.295Z,1.80
2018-02-16T15:12:34.554Z,3.53
2018-02-16T15:15:02.002Z,1.93
2018-02-16T15:17:29.491Z,2.20
2018-02-16T15:19:57.720Z,2.73
2018-02-16T15:22:25.203Z,2.00
2018-02-16T15:24:52.702Z,2.20
2018-02-16T15:27:20.419Z,2.13
2018-02-16T15:29:47.862Z,2.53
2018-02-16T15:32:15.367Z,2.80
2018-02-16T15:34:42.818Z,2.63
2018-02-16T15:37:10.275Z,2.07
2018-02-16T15:39:37.761Z,1.90
2018-02-16T15:42:05.227Z,2.30
2018-02-16T15:44:33.470Z,3.23
2018-02-16T15:47:01.379Z,2.30
2018-02-16T15:49:28.849Z,3.13
2018-02-16T15:51:56.307Z,2.07
2018-02-16T15:54:23.819Z,1.60
2018-02-16T15:56:51.279Z,1.40
2018-02-16T15:59:18.739Z,2.00
2018-02-16T16:01:46.226Z,2.10
2018-02-16T16:04:13.682Z,2.30
2018-02-16T16:06:41.143Z,1.60
2018-02-16T16:09:08.611Z,1.87
2018-02-16T16:11:36.073Z,1.67
2018-02-16T16:14:03.572Z,2.93
2018-02-16T16:16:31.035Z,1.50
2018-02-16T16:18:58.492Z,2.13
2018-02-16T16:21:25.942Z,1.67
2018-02-16T16:23:53.407Z,1.60
2018-02-16T16:26:21.015Z,2.70
2018-02-16T16:28:48.477Z,3.43
2018-02-16T16:31:17.020Z,2.90
2018-02-16T16:33:44.482Z,3.00
2018-02-16T16:36:11.938Z,2.00
2018-02-16T16:38:39.415Z,2.57
2018-02-16T16:41:06.870Z,2.03
2018-02-16T16:43:34.327Z,2.43
2018-02-16T16:46:01.799Z,1.97
2018-02-16T16:48:30.031Z,3.40
2018-02-16T16:50:57.485Z,3.50
2018-02-16T16:53:24.951Z,3.77
2018-02-16T16:55:52.414Z,2.67
2018-02-16T16:58:20.061Z,2.50
2018-02-16T17:00:47.550Z,3.03
2018-02-16T17:03:15.015Z,3.30
2018-02-16T17:05:43.250Z,3.93
2018-02-16T17:08:10.730Z,3.10
2018-02-16T17:10:38.193Z,3.00
2018-02-16T17:13:05.683Z,3.40
2018-02-16T17:15:33.134Z,3.70
2018-02-16T17:18:01.367Z,3.30
2018-02-16T17:20:28.826Z,3.97
2018-02-16T17:22:56.293Z,3.07
2018-02-16T17:25:23.749Z,3.30
2018-02-16T17:27:51.216Z,2.90
2018-02-16T17:30:18.705Z,3.10
2018-02-16T17:32:46.162Z,2.50
2018-02-16T17:35:13.624Z,3.40
2018-02-16T17:37:41.112Z,2.23
2018-02-16T17:40:08.559Z,2.97
2018-02-16T17:42:36.011Z,2.70
2018-02-16T17:45:03.548Z,3.70
2018-02-16T17:47:31.010Z,2.27
2018-02-16T17:49:58.482Z,2.47
2018-02-16T17:52:25.962Z,2.77
2018-02-16T17:54:53.444Z,2.30
2018-02-16T17:57:20.959Z,2.50
2018-02-16T17:59:48.447Z,3.03
2018-02-16T18:02:15.918Z,2.70
2018-02-16T18:04:43.367Z,2.90
2018-02-16T18:07:10.842Z,2.70
2018-02-16T18:09:39.066Z,2.87
2018-02-16T18:12:06.534Z,3.17
2018-02-16T18:14:34.016Z,2.70
2018-02-16T18:17:01.464Z,4.30
2018-02-16T18:19:28.914Z,2.97
2018-02-16T18:21:56.405Z,2.70
2018-02-16T18:24:24.689Z,3.00
2018-02-16T18:26:52.158Z,2.87
2018-02-16T18:29:19.640Z,3.30
2018-02-16T18:31:47.106Z,3.20
2018-02-16T18:34:14.567Z,2.67
2018-02-16T18:36:42.984Z,3.27
2018-02-16T18:39:11.215Z,3.60
2018-02-16T18:41:38.671Z,4.70
2018-02-16T18:44:06.153Z,11.00
2018-02-16T18:46:33.618Z,7.90
2018-02-16T18:49:01.842Z,7.00
2018-02-16T18:51:29.318Z,6.80
2018-02-16T18:53:56.776Z,7.20
2018-02-16T18:56:24.238Z,6.47
2018-02-16T18:58:51.744Z,5.60
2018-02-16T19:01:19.209Z,6.97
2018-02-16T19:03:46.688Z,7.10
2018-02-16T19:06:14.171Z,4.70
2018-02-16T19:08:42.434Z,5.00
2018-02-16T19:11:09.894Z,7.60
2018-02-16T19:13:37.399Z,9.83
2018-02-16T19:16:05.622Z,8.80
2018-02-16T19:18:33.087Z,8.20
2018-02-16T19:21:01.392Z,7.70
2018-02-16T19:23:28.845Z,7.87
2018-02-16T19:25:56.318Z,7.77
2018-02-16T19:28:24.568Z,8.27
2018-02-16T19:30:52.020Z,8.17
2018-02-16T19:33:20.266Z,7.90
2018-02-16T19:35:47.750Z,8.00
2018-02-16T19:38:15.206Z,7.53
2018-02-16T19:40:42.695Z,7.60
2018-02-16T19:43:10.946Z,15.83
2018-02-16T19:45:38.405Z,9.20
2018-02-16T19:48:05.888Z,8.57
2018-02-16T19:50:34.144Z,7.93
2018-02-16T19:53:01.627Z,8.20
2018-02-16T19:55:29.140Z,8.27
2018-02-16T19:57:56.664Z,5.07
2018-02-16T20:00:24.219Z,6.90
2018-02-16T20:02:51.693Z,5.47
2018-02-16T20:05:20.063Z,6.10
2018-02-16T20:07:47.520Z,7.40
2018-02-16T20:10:15.750Z,6.47
2018-02-16T20:12:43.242Z,5.50
2018-02-16T20:15:10.768Z,10.60
2018-02-16T20:17:38.264Z,15.47
2018-02-16T20:20:05.772Z,12.17
2018-02-16T20:22:34.068Z,10.23
2018-02-16T20:25:01.578Z,9.20
2018-02-16T20:27:29.188Z,8.97
2018-02-16T20:29:57.440Z,8.20
2018-02-16T20:32:24.938Z,8.20
2018-02-16T20:34:52.455Z,7.20
2018-02-16T20:37:20.711Z,7.30
2018-02-16T20:39:48.190Z,6.73
2018-02-16T20:42:15.695Z,7.07
2018-02-16T20:44:43.161Z,8.43
2018-02-16T20:47:10.648Z,9.17
2018-02-16T20:49:38.196Z,8.00
2018-02-16T20:52:05.654Z,7.77
2018-02-16T20:54:33.158Z,7.83
2018-02-16T20:57:00.651Z,5.87
2018-02-16T20:59:28.123Z,6.93
2018-02-16T21:01:56.112Z,8.20
2018-02-16T21:04:23.616Z,7.93
2018-02-16T21:06:51.116Z,7.90
2018-02-16T21:09:18.870Z,7.07
2018-02-16T21:11:47.465Z,8.30
2018-02-16T21:14:16.146Z,8.03
2018-02-16T21:16:43.658Z,7.77
2018-02-16T21:19:11.458Z,6.20
2018-02-16T21:21:39.089Z,6.77
2018-02-16T21:24:06.676Z,7.10
2018-02-16T21:26:34.523Z,8.00
2018-02-16T21:29:02.158Z,8.83
2018-02-16T21:31:31.259Z,8.60
2018-02-16T21:33:58.877Z,11.07
2018-02-16T21:36:27.580Z,10.53
2018-02-16T21:38:55.869Z,9.63
2018-02-16T21:41:24.166Z,9.03
2018-02-16T21:43:53.059Z,7.97
2018-02-16T21:46:22.212Z,9.80
2018-02-16T21:48:49.913Z,13.07
2018-02-16T21:51:18.956Z,19.97
2018-02-16T21:53:46.476Z,12.90
2018-02-16T21:56:14.218Z,13.47
2018-02-16T21:58:41.813Z,11.37
2018-02-16T22:01:09.364Z,12.37
2018-02-16T22:03:36.849Z,15.10
2018-02-16T22:06:04.356Z,11.00
2018-02-16T22:08:31.852Z,10.30
2018-02-16T22:10:59.364Z,21.23
2018-02-16T22:13:26.846Z,15.03
2018-02-16T22:15:54.346Z,11.37
2018-02-16T22:18:22.810Z,9.70
2018-02-16T22:20:50.291Z,10.77
2018-02-16T22:23:17.776Z,9.07
2018-02-16T22:25:45.266Z,8.23
2018-02-16T22:28:13.805Z,11.67
2018-02-16T22:30:41.298Z,7.80
2018-02-16T22:33:08.795Z,6.70
2018-02-16T22:35:37.057Z,6.63
2018-02-16T22:38:04.534Z,7.03
2018-02-16T22:40:32.791Z,6.83
2018-02-16T22:43:00.720Z,7.53
2018-02-16T22:45:28.187Z,7.53
2018-02-16T22:47:55.738Z,7.00
2018-02-16T22:50:23.368Z,8.93
2018-02-16T22:52:50.850Z,7.53
2018-02-16T22:55:18.344Z,8.00
2018-02-16T22:57:45.836Z,7.30
2018-02-16T23:00:14.116Z,7.30
2018-02-16T23:02:41.622Z,7.10
2018-02-16T23:05:09.119Z,6.63
2018-02-16T23:07:36.594Z,6.97
2018-02-16T23:10:04.090Z,6.43
2018-02-16T23:12:31.575Z,8.10
2018-02-16T23:14:59.871Z,8.03
2018-02-16T23:17:28.129Z,7.60
2018-02-16T23:19:56.083Z,7.37
2018-02-16T23:22:23.755Z,6.50
2018-02-16T23:24:51.235Z,6.53
2018-02-16T23:27:19.474Z,6.80
2018-02-16T23:29:46.956Z,6.87
2018-02-16T23:32:14.458Z,5.97
2018-02-16T23:34:41.975Z,7.00
2018-02-16T23:37:10.236Z,5.93
2018-02-16T23:39:38.515Z,6.90
2018-02-16T23:42:06.026Z,7.50
2018-02-16T23:44:33.461Z,5.67
2018-02-16T23:47:00.947Z,5.80
2018-02-16T23:49:29.179Z,7.67
2018-02-16T23:51:56.682Z,5.97
2018-02-16T23:54:24.986Z,6.33
2018-02-16T23:56:52.454Z,7.63
2018-02-16T23:59:19.934Z,7.30
